Flight Track Log - Related Links

Times and Time Zones

All times are in EDT time to prevent confusion due to time zone crossing. See the FSR411 flight status page for this flight to view local times or setup timezone preferences in your user account.

Time Position Orientation Groundspeed Altitude Reporting Facility
EDT Latitude Longitude Course Direction KTS km/h feet Rate Location/Type
Sat 11:24:17 40.0986 -88.2581 75° East 243 451 23,000  Level Chicago Center
Sat 11:25:19 40.1222 -88.1700 71° East 277 513 7,100 -6,387 Descending Chicago Center
Sat 11:26:21 40.1542 -88.0744 66° East 292 541 9,800 1,403 Climbing Chicago Center
Sat 11:27:23 40.1917 -87.9469 69° East 341 631 10,000 244 Climbing Chicago Center
Sat 11:28:24 40.2294 -87.8228 68° East 366 678 10,300 2,530 Climbing Chicago Center
Sat 11:29:00 40.3924 -87.1380 75° East  Level FlightAware Approximate
Sat 11:30:28 40.3194 -87.5217 69° East 418 774 17,800  Level Chicago Center
Sat 11:31:29 40.3606 -87.3836 69° East 440 814 21,300 2,537 Climbing Chicago Center
Sat 11:32:31 40.4069 -87.2267 69° East 459 850 23,000 823 Climbing Chicago Center
Sat 11:33:33 40.4542 -87.0611 69° East 480 888 23,000  Level Chicago Center
Sat 11:34:35 40.5128 -86.8586 69° East 494 914 23,000  Level Chicago Center
Sat 11:35:36 40.5622 -86.6897 69° East 495 917 23,000  Level Chicago Center
Sat 11:36:38 40.6114 -86.5192 69° East 498 922 23,000  Level Chicago Center
Sat 11:37:40 40.6603 -86.3464 69° East 502 930 23,000  Level Chicago Center
Sat 11:38:42 40.7075 -86.1800 69° East 506 937 23,000  Level Chicago Center
Sat 11:39:43 40.7556 -86.0069 70° East 506 937 23,000  Level Chicago Center
Sat 11:40:45 40.8125 -85.8017 70° East 500 925 23,000  Level Chicago Center
Sat 11:41:47 40.8578 -85.6356 70° East 490 908 23,000  Level Chicago Center
Sat 11:42:49 40.9036 -85.4678 70° East 488 904 23,000 -537 Level Chicago Center
Sat 11:43:50 40.9539 -85.3053 68° East 484 896 21,900 -1,659 Descending Chicago Center
Sat 11:44:52 41.0069 -85.1286 68° East 485 898 19,600 -2,032 Descending Chicago Center
Sat 11:45:54 41.0600 -84.9564 68° East 457 847 17,700 -1,258 Descending Chicago Center
Sat 11:46:56 41.1061 -84.8056 68° East 449 832 17,000 -341 Descending Chicago Center
Sat 11:47:57 41.1506 -84.6558 68° East 441 816 17,000  Level Chicago Center
Sat 11:48:59 41.1958 -84.5075 68° East 438 811 17,000  Level Chicago Center
Sat 11:50:01 41.2400 -84.3581 69° East 437 810 17,000 48 Level Chicago Center
Sat 11:51:03 41.2844 -84.2100 68° East 435 806 17,100  Climbing Chicago Center
Sat 11:52:04 41.3286 -84.0611 68° East 436 808 17,000 -732 Descending Chicago Center
Sat 11:53:06 41.3803 -83.8831 69° East 432 800 15,600 -1,468 Descending Chicago Center
Sat 11:53:38 41.3986 -83.8172 70° East 426 789 14,700 -1,829 Descending Cleveland Center
Sat 11:54:28 41.4361 -83.6886 69° East 399 739 13,100 -1,839 Descending Cleveland Center
Sat 11:54:40 41.4419 -83.6658 71° East 406 752 12,800 -1,800 Descending Cleveland Center
Sat 11:55:28 41.4828 -83.5561 64° Northeast 396 734 11,300 -1,548 Descending Cleveland Center
Sat 11:55:42 41.4842 -83.5467 79° East 399 739 11,200 -1,279 Descending Cleveland Center
Sat 11:56:29 41.5350 -83.4267 60° Northeast 381 705 10,000 -1,180 Descending Cleveland Center
Sat 11:56:43 41.5464 -83.3986 62° Northeast 385 713 10,000  Level Cleveland Center
Sat 11:57:30 41.5844 -83.3025 62° Northeast 379 702 10,000  Level Cleveland Center
Sat 11:57:45 41.5950 -83.2756 62° Northeast 379 702 10,000  Level Cleveland Center
Sat 11:58:30 41.6631 -83.2072 37° Northeast 399 739 10,000  Level Cleveland Center
Sat 11:58:46 41.6825 -83.1892 35° Northeast 391 724 10,000  Level Cleveland Center
Sat 11:59:19 41.7372 -83.1447 31° Northeast 391 724 10,000  Level Cleveland Center
Sat 11:59:48 41.7733 -83.1114 35° Northeast 392 726 10,000  Level Cleveland Center
Sat 12:00:32 41.8475 -83.0450 34° Northeast 392 726 10,000  Level Cleveland Center
Sat 12:00:49 41.8622 -83.0303 37° Northeast 391 724 10,000 -556 Level Cleveland Center
Sat 12:01:26 41.9172 -82.9786 35° Northeast 318 589 9,500 -871 Descending Cleveland Center
Sat 12:01:51 41.9358 -82.9611 35° Northeast 331 613 9,100 -1,475 Descending Cleveland Center
Sat 12:02:27 41.9914 -82.9128 33° Northeast 318 589 8,000 -1,279 Descending Cleveland Center
Sat 12:02:52 42.0069 -82.8961 39° Northeast 317 587 7,800 -1,418 Descending Cleveland Center
Sat 12:03:22 42.0564 -82.8542 32° Northeast 295 546 6,700 -2,226 Descending Cleveland Center
Sat 12:03:54 42.0883 -82.8222 37° Northeast 303 562 5,500 -1,770 Descending Cleveland Center
Sat 12:04:23 42.1214 -82.7953 31° Northeast 288 533 4,900 -1,548 Descending Cleveland Center
Sat 12:04:56 42.1561 -82.7853 12° North 291 539 3,900 -1,700 Descending Cleveland Center
Sat 12:05:23 42.1942 -82.8019 342° North 261 483 3,200 -885 Descending Cleveland Center
Sat 12:05:57 42.2217 -82.8214 332° Northwest 261 483 3,000 -197 Descending Cleveland Center
Sat 12:06:24 42.2497 -82.8461 327° Northwest 215 398 3,000  Level Cleveland Center
Sat 12:06:59 42.2703 -82.8667 324° Northwest 223 414 3,000  Level Cleveland Center
Sat 12:07:31 42.2964 -82.8944 322° Northwest 169 312 3,000  Level Cleveland Center
Sat 12:08:01 42.3056 -82.9058 317° Northwest 177 328 3,000 -393 Level Cleveland Center
Sat 12:08:32 42.3236 -82.9236 324° Northwest 115 212 2,600 -787 Descending Cleveland Center
Sat 12:09:02 42.3322 -82.9308 328° Northwest 130 241 2,200 -393 Descending Cleveland Center
Sat 12:09:33 42.3508 -82.9497 323° Northwest 120 222 2,200 -290 Level Cleveland Center
Sat 12:10:04 42.3644 -82.9644 321° Northwest 124 230 1,900 -764 Descending Cleveland Center
Sat 12:10:28 42.3783 -82.9761 328° Northwest 128 237 1,500 -885 Descending Cleveland Center
Sat 12:11:05 42.3922 -82.9931 318° Northwest 125 232 1,000 -811 Descending Cleveland Center

Login

Don't have an account? Register now (free) for customized features, flight alerts, and more!